Turkey, North Carolina
Current Conditions -  °F | °C
As of 3:55 PM on Tuesday 27 Jan 2015 (Local Time) from KCTZ Reporting Station
Scattered Clouds Scattered Clouds  
Wind Chill: 39°   Ceiling: Unl
Heat Index: 42°   Visibility: 10mi
Dew Point: 27°   Wind: 6mph
Humidity: 55%   Direction: 310°NW
Pressure: 29.83"   Gusts: NA
Location:  34.99°N, 78.18°W
Report Text: KCTZ 272055Z AUTO 31005KT 10SM SCT040 06/M03 A2983 RMK AO2 T00571028
Loading
Personal Weather Stations






























Interactive Weather Map New forecast layout! Learn more

10-Day Weather Forecast

Advertisements
Track Severe Weather on mobile